Juneau International Airport Juneau US
ICAO: PAJN
IATA: JNU
Category: Medium
Scheduled Services:

Elevation: 21 ft
TransAlt. 18000 ft.

Airport Communications:
ATIS:135.2
TWEB:114
ANCHORAGE CNTR:133.9
CTAF:118.7
RDO:122.2
GND:121.9
RDO:122.15
NAT GD OPS:124.65
TWR:118.7
UNICOM:122.95

PAJN Zoom In..

Runways:

(A) RW 08 length 8457 ft width 150 ft
---- / hdg 85

(B) RW 26 length 8457 ft width 150 ft
---- / hdg 265

Location; PAJN
Day. 24 / Time. 01.53 Zulu
* Altimeter: 29.59
* Temperature: -05° c. -23°f.
* Wind from: 000° Speed 00 kn.
Dewpoint: -05° c.
Visibility: 10 Statute Miles.
Clouds: Few 000 ft.
Clouds: Few 1600 ft.
Clouds: Scattered 2000 ft.
Clouds: Few 000 ft.
Conditions: Fog Patches.Conditions: Fog Patches.Conditions: Fog Patches.

PAJN 240153Z 00000KT 10SM R08/4000VP6000FT BCFG FEW000 FEW016 SCT200 M05/M05 A2959 RMK AO2 SLP019 BCFG FEW000 BCFG SE-SW I1001 T10501050


Wind - Calm.

YouTube Music Video
 
jpsmedia.com for Web Design  worldairports.se 2018   terms of use